Time;durP1;ratioP1;P1;durP2;ratioP2;P2;SDS_P1;SDS_P2;PMS_P1;PMS_P2;Temp;Humidity;BMP_temperature;BMP_pressure;BME280_temperature;BME280_humidity;BME280_pressure;Samples;Min_cycle;Max_cycle;Signal;HPM_P1;HPM_P2
2022/08/10 00:00:26;;;;;;;3.25;1.70;;;;;;;23.81;35.23;100376.16;7629971;32;37818;-74
2022/08/10 00:04:42;;;;;;;3.12;1.70;;;;;;;23.88;35.06;100378.38;7631726;32;39481;-74
2022/08/10 00:08:58;;;;;;;2.65;1.50;;;;;;;23.80;35.07;100380.06;7631653;32;39876;-75
2022/08/10 00:13:14;;;;;;;3.33;1.70;;;;;;;23.63;35.87;100376.34;7631496;32;38757;-75
2022/08/10 00:17:30;;;;;;;3.72;1.40;;;;;;;23.58;35.96;100371.00;7631514;32;36761;-75
2022/08/10 00:21:47;;;;;;;3.17;1.80;;;;;;;23.62;35.88;100366.37;7631344;32;39914;-74
2022/08/10 00:26:04;;;;;;;4.32;1.60;;;;;;;23.54;35.99;100364.53;7617418;32;40832;-75
2022/08/10 00:30:20;;;;;;;1.70;1.50;;;;;;;23.37;36.60;100365.53;7631046;32;37930;-75
2022/08/10 00:34:39;;;;;;;2.12;1.60;;;;;;;23.20;37.10;100376.84;7631173;32;37337;-74
2022/08/10 00:38:55;;;;;;;8.40;1.87;;;;;;;23.19;36.81;100375.22;7630992;32;40148;-74
2022/08/10 00:43:11;;;;;;;4.50;1.37;;;;;;;23.09;37.10;100379.22;7630785;32;39954;-75
2022/08/10 00:47:27;;;;;;;3.17;1.67;;;;;;;22.83;37.68;100374.69;7630176;32;38030;-75
2022/08/10 00:51:52;;;;;;;4.40;1.87;;;;;;;22.98;37.41;100380.78;7604728;32;37055;-75
2022/08/10 00:56:09;;;;;;;4.57;1.87;;;;;;;22.79;37.71;100384.88;7604545;32;40172;-75
2022/08/10 01:00:46;;;;;;;6.10;1.85;;;;;;;22.60;38.91;100387.31;7605195;32;40326;-75
2022/08/10 01:05:08;;;;;;;4.57;1.80;;;;;;;22.84;37.79;100381.88;7630369;32;38672;-74
2022/08/10 01:09:48;;;;;;;2.62;1.55;;;;;;;22.77;37.99;100378.84;7630310;32;37870;-74
2022/08/10 01:14:30;;;;;;;4.20;1.60;;;;;;;22.70;38.08;100373.03;7633000;32;40311;-74
2022/08/10 01:19:11;;;;;;;4.97;1.98;;;;;;;22.66;38.83;100374.81;7633691;32;40559;-74
2022/08/10 01:23:39;;;;;;;2.67;1.50;;;;;;;22.64;38.66;100375.16;7633578;32;38022;-74
2022/08/10 01:28:23;;;;;;;5.75;1.90;;;;;;;22.57;38.54;100372.13;7632660;32;37546;-75
2022/08/10 01:32:44;;;;;;;7.87;1.75;;;;;;;22.51;38.79;100373.50;7633634;32;40335;-74
2022/08/10 01:37:07;;;;;;;6.03;2.10;;;;;;;22.40;39.04;100381.38;7633316;32;38869;-74
2022/08/10 01:41:30;;;;;;;3.83;2.03;;;;;;;22.61;38.44;100383.37;7633437;32;37954;-74
2022/08/10 01:46:04;;;;;;;3.22;1.67;;;;;;;22.66;38.31;100383.16;7633301;32;37106;-75
2022/08/10 01:50:49;;;;;;;4.28;1.90;;;;;;;22.30;39.35;100379.00;7620021;32;40231;-74
2022/08/10 01:55:16;;;;;;;4.20;1.85;;;;;;;22.42;39.13;100379.13;7633340;32;40876;-75
2022/08/10 01:59:38;;;;;;;4.72;1.90;;;;;;;22.53;38.69;100378.72;7618873;32;38720;-75
2022/08/10 02:03:58;;;;;;;5.90;2.25;;;;;;;22.48;38.73;100379.72;7620046;32;37914;-75
2022/08/10 02:08:23;;;;;;;4.12;1.83;;;;;;;22.47;38.99;100383.63;7620628;32;40069;-75
2022/08/10 02:12:41;;;;;;;4.03;1.77;;;;;;;22.43;38.99;100386.28;7619731;32;40777;-75
2022/08/10 02:16:58;;;;;;;5.07;1.98;;;;;;;22.52;39.04;100379.84;7633039;32;37879;-75
2022/08/10 02:21:14;;;;;;;3.35;1.92;;;;;;;22.38;38.95;100377.34;7619547;32;37814;-75
2022/08/10 02:25:31;;;;;;;5.20;1.87;;;;;;;22.30;38.96;100382.63;7631928;32;39125;-75
2022/08/10 02:29:57;;;;;;;6.25;1.98;;;;;;;22.31;39.14;100388.97;7632989;32;40012;-75
2022/08/10 02:34:14;;;;;;;2.20;1.45;;;;;;;22.27;39.18;100385.22;7632762;32;38001;-75
2022/08/10 02:38:36;;;;;;;3.12;1.87;;;;;;;22.23;39.65;100390.66;7632797;32;37689;-75
2022/08/10 02:43:34;;;;;;;4.75;1.92;;;;;;;22.27;39.50;100399.13;7621422;32;39602;-75
2022/08/10 02:48:15;;;;;;;4.18;1.73;;;;;;;22.10;39.79;100409.16;7622085;32;40252;-75
2022/08/10 02:53:12;;;;;;;5.20;1.90;;;;;;;22.19;39.54;100398.00;7619395;32;38742;-75
2022/08/10 02:57:53;;;;;;;3.40;1.73;;;;;;;22.12;39.76;100403.28;7624273;32;37374;-75
2022/08/10 03:02:37;;;;;;;3.17;1.80;;;;;;;22.12;39.70;100392.97;7631545;32;39675;-75
2022/08/10 03:07:04;;;;;;;2.87;1.95;;;;;;;21.96;40.27;100400.25;7619067;32;39979;-75
2022/08/10 03:11:26;;;;;;;3.50;1.83;;;;;;;21.99;39.89;100407.09;7619334;32;38124;-75
2022/08/10 03:16:03;;;;;;;2.92;1.77;;;;;;;22.08;39.76;100411.47;7620381;32;37313;-75
2022/08/10 03:20:20;;;;;;;4.62;1.67;;;;;;;22.15;39.63;100412.91;7632396;32;39487;-75
2022/08/10 03:24:54;;;;;;;3.70;1.83;;;;;;;21.92;40.60;100424.25;7620850;32;39903;-75
2022/08/10 03:29:10;;;;;;;5.57;1.60;;;;;;;21.80;40.28;100421.38;7618699;32;37662;-76
2022/08/10 03:33:37;;;;;;;5.40;1.75;;;;;;;21.86;40.32;100420.84;7632180;32;37715;-75
2022/08/10 03:37:53;;;;;;;5.90;1.75;;;;;;;21.82;40.29;100422.69;7631448;32;40071;-75
2022/08/10 03:42:15;;;;;;;5.65;1.90;;;;;;;21.78;40.41;100423.66;7619289;32;39966;-76
2022/08/10 03:46:32;;;;;;;5.45;1.90;;;;;;;21.57;41.57;100424.38;7618454;32;38087;-75
2022/08/10 03:50:50;;;;;;;8.07;1.92;;;;;;;21.72;40.84;100434.94;7619037;32;36121;-76
2022/08/10 03:55:08;;;;;;;3.78;1.52;;;;;;;21.52;41.85;100438.44;7631362;32;39435;-75
2022/08/10 03:59:24;;;;;;;2.60;1.70;;;;;;;21.58;41.40;100442.66;7618314;32;39921;-74
2022/08/10 04:03:41;;;;;;;3.53;2.10;;;;;;;21.54;41.51;100452.78;7618260;32;37651;-75
2022/08/10 04:07:58;;;;;;;5.65;1.73;;;;;;;21.57;41.90;100458.47;7631674;32;37833;-75
2022/08/10 04:12:14;;;;;;;7.62;2.08;;;;;;;21.59;41.97;100460.13;7631495;32;39379;-75
2022/08/10 04:16:30;;;;;;;2.25;1.62;;;;;;;21.63;42.15;100470.25;7631525;32;40491;-75
2022/08/10 04:20:55;;;;;;;4.97;1.83;;;;;;;21.39;42.57;100471.56;7631202;32;37617;-76
2022/08/10 04:25:13;;;;;;;4.72;1.55;;;;;;;21.67;42.55;100462.06;7618583;32;36963;-76
2022/08/10 04:29:29;;;;;;;2.00;1.33;;;;;;;21.55;43.10;100466.31;7617855;32;39399;-76
2022/08/10 04:33:48;;;;;;;4.80;1.50;;;;;;;21.47;43.39;100469.94;7631111;32;40088;-75
2022/08/10 04:38:05;;;;;;;3.87;1.83;;;;;;;21.39;43.72;100468.78;7617658;32;37646;-77
2022/08/10 04:42:21;;;;;;;5.22;1.62;;;;;;;21.42;43.23;100472.88;7616853;32;37165;-77
2022/08/10 04:46:38;;;;;;;4.18;1.98;;;;;;;21.52;42.92;100471.72;7631175;32;40174;-78
2022/08/10 04:51:16;;;;;;;9.27;2.20;;;;;;;21.56;42.97;100472.72;7634063;32;40650;-78
2022/08/10 04:55:34;;;;;;;7.93;2.08;;;;;;;21.68;43.07;100463.69;7633954;32;38191;-78
2022/08/10 04:59:50;;;;;;;5.90;2.00;;;;;;;21.59;43.78;100463.69;7634016;32;37250;-78
2022/08/10 05:04:06;;;;;;;6.00;1.80;;;;;;;21.72;43.81;100465.47;7633590;32;40035;-77
2022/08/10 05:08:42;;;;;;;5.15;1.75;;;;;;;21.92;42.63;100468.66;7633262;32;40244;-77
2022/08/10 05:12:58;;;;;;;4.15;1.83;;;;;;;21.85;42.40;100469.22;7633615;32;38005;-77
2022/08/10 05:17:14;;;;;;;3.95;1.80;;;;;;;21.76;43.19;100466.44;7633799;32;38219;-77
2022/08/10 05:21:30;;;;;;;2.90;1.83;;;;;;;22.02;42.24;100467.50;7620323;32;39294;-78
2022/08/10 05:26:06;;;;;;;3.37;1.70;;;;;;;22.26;43.05;100467.72;7632997;32;40928;-78
2022/08/10 05:30:22;;;;;;;3.58;1.80;;;;;;;22.54;42.56;100472.81;7633186;32;38470;-74
2022/08/10 05:34:39;;;;;;;6.12;1.90;;;;;;;22.70;42.24;100473.06;7633544;32;37137;-74
2022/08/10 05:38:55;;;;;;;4.10;1.85;;;;;;;22.71;41.73;100466.34;7620057;32;40297;-72
2022/08/10 05:43:11;;;;;;;2.55;1.60;;;;;;;22.78;40.97;100468.59;7632403;32;39901;-72
2022/08/10 05:47:29;;;;;;;3.35;1.50;;;;;;;23.12;40.77;100458.38;7632779;32;37959;-72
2022/08/10 05:52:05;;;;;;;3.75;1.70;;;;;;;22.85;38.83;100458.56;7632873;32;38400;-72
2022/08/10 05:56:22;;;;;;;6.37;1.70;;;;;;;23.46;39.68;100451.69;7631824;32;39962;-72
2022/08/10 06:00:39;;;;;;;3.83;1.62;;;;;;;23.27;39.48;100449.41;7618650;32;42495;-72
2022/08/10 06:05:13;;;;;;;7.32;1.87;;;;;;;23.58;37.73;100456.47;7619393;32;38058;-72
2022/08/10 06:09:30;;;;;;;4.97;1.50;;;;;;;23.62;36.69;100454.63;7632384;32;37048;-71
2022/08/10 06:18:31;;;;;;;4.68;1.67;;;;;;;24.12;35.60;100449.97;7632759;32;40891;-72
2022/08/10 06:22:47;;;;;;;3.58;1.35;;;;;;;24.37;34.64;100451.59;7632400;32;37942;-72
2022/08/10 06:27:04;;;;;;;2.92;1.70;;;;;;;24.43;34.01;100451.34;7632918;32;37975;-71
2022/08/10 06:31:21;;;;;;;5.10;1.55;;;;;;;24.28;34.67;100450.87;7632597;32;39291;-73
2022/08/10 06:35:37;;;;;;;9.65;2.08;;;;;;;24.63;34.46;100447.66;7604297;32;40905;-72
2022/08/10 06:39:54;;;;;;;4.78;1.55;;;;;;;24.78;34.10;100451.66;7630949;32;38053;-71
2022/08/10 06:44:15;;;;;;;3.40;1.73;;;;;;;25.09;32.72;100455.75;7631949;32;38217;-73
2022/08/10 06:48:37;;;;;;;2.72;1.60;;;;;;;25.43;32.20;100439.59;7617591;32;40359;-72
2022/08/10 06:52:54;;;;;;;4.35;1.50;;;;;;;25.59;31.62;100439.63;7629018;32;39600;-74
2022/08/10 06:57:12;;;;;;;7.07;1.35;;;;;;;25.40;32.15;100437.53;7626525;32;38713;-74
2022/08/10 07:01:35;;;;;;;4.47;1.30;;;;;;;25.55;31.75;100438.72;7612002;32;37761;-74
2022/08/10 07:05:53;;;;;;;2.37;1.30;;;;;;;25.54;31.64;100435.09;7628817;32;39183;-72
2022/08/10 07:10:10;;;;;;;6.60;1.48;;;;;;;25.58;31.37;100432.44;7629874;32;39535;-75
2022/08/10 07:14:28;;;;;;;8.13;1.70;;;;;;;25.63;31.18;100423.75;7618986;32;37662;-75
2022/08/10 07:18:46;;;;;;;2.67;1.75;;;;;;;25.81;31.00;100436.22;7619213;32;36722;-75
2022/08/10 07:23:03;;;;;;;3.03;1.48;;;;;;;25.69;30.78;100422.34;7615995;32;40500;-78
2022/08/10 07:27:40;;;;;;;3.40;1.40;;;;;;;26.21;30.71;100426.84;7618011;32;41191;-75
2022/08/10 07:32:18;;;;;;;1.20;1.00;;;;;;;26.34;30.90;100432.34;7617967;32;38123;-76
2022/08/10 07:36:35;;;;;;;4.07;1.55;;;;;;;26.56;30.47;100417.69;7616933;32;38238;-75
2022/08/10 07:40:52;;;;;;;4.85;1.33;;;;;;;26.28;30.16;100408.66;7618359;32;39300;-74
2022/08/10 07:45:09;;;;;;;2.90;1.40;;;;;;;26.87;29.87;100413.19;7630251;32;39709;-75
2022/08/10 07:49:27;;;;;;;2.67;1.33;;;;;;;26.86;30.17;100419.94;7629132;32;37964;-76
2022/08/10 07:53:51;;;;;;;4.05;1.50;;;;;;;26.95;28.83;100423.34;7618413;32;37354;-76
2022/08/10 07:58:08;;;;;;;1.58;1.20;;;;;;;27.05;28.10;100421.16;7618788;32;39270;-75
2022/08/10 08:02:52;;;;;;;7.53;1.55;;;;;;;26.83;28.93;100425.47;7631532;32;39591;-76
2022/08/10 08:07:09;;;;;;;2.55;1.15;;;;;;;27.47;27.71;100425.97;7618913;32;38748;-76
2022/08/10 08:11:29;;;;;;;2.75;1.37;;;;;;;27.39;28.30;100424.22;7631369;32;38360;-77
2022/08/10 08:15:45;;;;;;;2.22;1.30;;;;;;;27.39;28.10;100429.81;7631462;32;39404;-75
2022/08/10 08:20:22;;;;;;;2.35;1.50;;;;;;;27.85;27.46;100429.84;7619190;32;40269;-76
2022/08/10 08:24:40;;;;;;;6.32;1.65;;;;;;;27.67;27.86;100427.53;7617452;32;38728;-76
2022/08/10 08:28:58;;;;;;;3.28;1.25;;;;;;;28.11;27.42;100429.09;7631107;32;37831;-75
2022/08/10 08:33:20;;;;;;;11.50;1.73;;;;;;;27.94;27.44;100432.41;7631001;32;40161;-74
2022/08/10 08:37:56;;;;;;;1.95;1.10;;;;;;;28.17;27.02;100418.41;7630543;32;41306;-76
2022/08/10 08:42:53;;;;;;;1.77;1.00;;;;;;;28.53;25.65;100419.72;7630407;32;39043;-75
2022/08/10 08:47:26;;;;;;;2.47;1.15;;;;;;;28.30;25.80;100408.56;7618890;32;37855;-76
2022/08/10 08:52:29;;;;;;;3.30;1.62;;;;;;;28.55;25.57;100406.16;7620587;32;39637;-75
2022/08/10 08:56:53;;;;;;;;;;;;;;;27.94;25.90;100410.84;7630831;32;39859;-75
2022/08/10 09:01:39;;;;;;;2.85;1.00;;;;;;;28.55;24.64;100402.56;7630583;32;39092;-74
2022/08/10 09:06:15;;;;;;;4.85;1.25;;;;;;;28.93;24.96;100406.25;7630218;32;36766;-74
2022/08/10 09:10:57;;;;;;;2.17;1.10;;;;;;;29.01;24.46;100410.75;7630278;32;39479;-76
2022/08/10 09:15:43;;;;;;;2.08;1.33;;;;;;;29.25;24.51;100401.03;7630147;32;40026;-76
2022/08/10 09:20:12;;;;;;;3.00;1.20;;;;;;;29.11;24.55;100403.66;7629834;32;38215;-77
2022/08/10 09:24:45;;;;;;;3.25;0.68;;;;;;;29.33;23.87;100399.91;7617370;32;37253;-76
2022/08/10 09:29:02;;;;;;;2.15;1.20;;;;;;;29.81;22.89;100390.75;7629778;32;39645;-76
2022/08/10 09:33:37;;;;;;;2.28;1.05;;;;;;;29.92;22.39;100369.16;7631221;32;40024;-75
2022/08/10 09:38:50;;;;;;;2.08;1.10;;;;;;;29.65;22.29;100385.38;7622349;32;39365;-75
2022/08/10 09:43:18;;;;;;;2.95;1.37;;;;;;;30.15;23.08;100387.81;7633286;32;36761;-75
2022/08/10 09:48:18;;;;;;;3.95;0.93;;;;;;;30.54;21.48;100378.81;7621624;32;39404;-75
2022/08/10 09:53:02;;;;;;;3.58;1.23;;;;;;;30.75;21.37;100374.50;7633285;32;40293;-76
2022/08/10 09:57:57;;;;;;;2.22;1.00;;;;;;;31.00;20.83;100375.41;7633166;32;38538;-75
2022/08/10 10:02:34;;;;;;;3.92;1.12;;;;;;;30.94;20.97;100371.38;7632989;32;37135;-76
2022/08/10 10:07:24;;;;;;;2.67;1.00;;;;;;;30.47;21.23;100371.16;7620152;32;39537;-75
2022/08/10 10:11:43;;;;;;;1.83;1.23;;;;;;;31.25;20.61;100369.03;7633065;32;39613;-75
2022/08/10 10:16:03;;;;;;;1.20;0.95;;;;;;;31.32;20.78;100356.97;7633094;32;38811;-75
2022/08/10 10:20:31;;;;;;;2.53;0.93;;;;;;;31.56;20.33;100342.16;7619730;32;37069;-75
2022/08/10 10:24:57;;;;;;;1.27;1.12;;;;;;;31.64;19.51;100348.59;7632891;32;40163;-75
2022/08/10 10:29:42;;;;;;;2.62;1.17;;;;;;;32.08;19.38;100353.03;7620284;32;40126;-75
2022/08/10 10:34:33;;;;;;;3.17;1.30;;;;;;;32.32;19.04;100344.88;7615895;32;37918;-75
2022/08/10 10:38:50;;;;;;;2.47;0.90;;;;;;;31.90;18.80;100340.91;7621329;32;37752;-75
2022/08/10 10:43:15;;;;;;;3.40;1.05;;;;;;;32.11;18.97;100335.25;7619275;32;39160;-75
2022/08/10 10:47:45;;;;;;;1.20;1.10;;;;;;;32.73;18.62;100324.59;7630225;32;40895;-75
2022/08/10 10:52:28;;;;;;;2.35;1.00;;;;;;;32.66;17.70;100322.63;7631853;32;38034;-75
2022/08/10 10:57:14;;;;;;;1.40;1.20;;;;;;;33.02;17.54;100304.69;7628135;32;38435;-75
2022/08/10 11:01:51;;;;;;;2.92;1.10;;;;;;;33.79;17.41;100292.38;7631679;32;40264;-76
2022/08/10 11:06:19;;;;;;;1.33;0.70;;;;;;;33.71;17.36;100302.97;7632148;32;39997;-75
2022/08/10 11:11:00;;;;;;;0.88;0.68;;;;;;;33.95;16.32;100295.47;7632218;32;38946;-74
2022/08/10 11:15:34;;;;;;;3.65;1.00;;;;;;;34.19;15.82;100287.13;7618971;32;37136;-76
2022/08/10 11:20:11;;;;;;;2.10;1.00;;;;;;;33.89;16.55;100276.53;7620699;32;40138;-75
2022/08/10 11:24:51;;;;;;;1.23;1.10;;;;;;;34.27;16.00;100271.66;7632097;32;40782;-77
2022/08/10 11:29:15;;;;;;;1.95;0.90;;;;;;;34.85;15.06;100273.78;7631586;32;37909;-76
2022/08/10 11:33:59;;;;;;;1.73;0.90;;;;;;;35.29;14.75;100277.53;7618652;32;37025;-75
2022/08/10 11:38:56;;;;;;;4.00;0.98;;;;;;;34.52;14.52;100270.56;7613263;32;39722;-76
2022/08/10 11:43:34;;;;;;;4.85;0.90;;;;;;;35.18;13.83;100272.03;7598328;32;40124;-75
2022/08/10 11:48:00;;;;;;;2.30;1.00;;;;;;;34.99;14.16;100279.22;7617358;32;38035;-77
2022/08/10 11:52:28;;;;;;;3.83;1.00;;;;;;;35.65;13.84;100265.59;7631449;32;37740;-76
2022/08/10 11:56:51;;;;;;;4.15;1.00;;;;;;;35.79;13.10;100264.53;7617751;32;39295;-76
2022/08/10 12:01:09;;;;;;;1.20;0.80;;;;;;;35.88;14.39;100265.59;7630821;32;40308;-76
2022/08/10 12:05:33;;;;;;;1.08;0.80;;;;;;;36.22;13.88;100270.22;7630335;32;37776;-76
2022/08/10 12:10:12;;;;;;;3.08;0.88;;;;;;;36.42;13.77;100261.66;7620423;32;37287;-75
2022/08/10 12:14:44;;;;;;;0.98;0.70;;;;;;;35.97;12.32;100252.88;7631654;32;40124;-76
2022/08/10 12:19:13;;;;;;;2.03;0.80;;;;;;;36.35;12.38;100249.69;7631426;32;39601;-75
2022/08/10 12:23:42;;;;;;;2.60;0.98;;;;;;;36.66;11.98;100248.16;7630585;32;37939;-76
2022/08/10 12:28:09;;;;;;;1.00;0.85;;;;;;;36.64;11.40;100239.28;7615871;32;37872;-76
2022/08/10 12:32:38;;;;;;;2.03;0.73;;;;;;;36.51;12.42;100246.87;7614813;32;39380;-78
2022/08/10 12:37:06;;;;;;;1.10;0.73;;;;;;;36.79;12.55;100239.78;7605100;32;39610;-78
2022/08/10 12:41:32;;;;;;;1.10;0.90;;;;;;;36.58;12.49;100241.06;7614519;32;38534;-79
2022/08/10 12:46:15;;;;;;;1.92;0.70;;;;;;;37.22;12.15;100229.41;7629332;32;37070;-79
2022/08/10 12:50:48;;;;;;;1.17;0.68;;;;;;;37.32;12.53;100236.09;7616737;32;39288;-78
2022/08/10 12:55:06;;;;;;;2.53;0.80;;;;;;;37.18;12.03;100228.72;7630017;32;39668;-78
2022/08/10 12:59:26;;;;;;;1.87;0.65;;;;;;;37.27;11.85;100226.03;7616284;32;38103;-79
2022/08/10 13:03:44;;;;;;;2.78;1.00;;;;;;;37.67;11.97;100205.94;7616154;32;36051;-79
2022/08/10 13:12:58;;;;;;;2.28;0.90;;;;;;;37.68;11.84;100201.81;7633145;32;39634;-79
2022/08/10 13:17:18;;;;;;;1.98;1.02;;;;;;;36.78;12.33;100214.66;7631693;32;38750;-78
2022/08/10 13:21:37;;;;;;;1.55;1.10;;;;;;;36.39;12.19;100214.28;7619734;32;37137;-78
2022/08/10 13:25:57;;;;;;;1.17;0.95;;;;;;;36.40;13.03;100201.72;7619124;32;39323;-78
2022/08/10 13:30:13;;;;;;;1.05;0.80;;;;;;;36.59;13.19;100204.94;7620378;32;40833;-78
2022/08/10 13:34:30;;;;;;;1.08;0.70;;;;;;;36.71;12.82;100203.47;7619585;32;37861;-79
2022/08/10 13:39:00;;;;;;;0.93;0.68;;;;;;;36.80;12.62;100203.66;7632827;32;37100;-78
2022/08/10 13:43:17;;;;;;;3.55;1.05;;;;;;;36.98;12.30;100201.19;7619624;32;39157;-78
2022/08/10 13:47:34;;;;;;;7.70;1.20;;;;;;;36.59;12.47;100202.91;7618917;32;40846;-78
2022/08/10 13:52:10;;;;;;;1.50;0.93;;;;;;;36.27;13.01;100204.44;7632648;32;38019;-77
2022/08/10 13:56:27;;;;;;;2.00;1.02;;;;;;;36.56;13.02;100185.94;7619893;32;37206;-77
2022/08/10 14:00:44;;;;;;;1.27;0.90;;;;;;;37.35;12.61;100179.13;7618426;32;39281;-78
2022/08/10 14:05:01;;;;;;;3.28;1.02;;;;;;;37.35;11.49;100167.75;7632182;32;39975;-78
2022/08/10 14:09:23;;;;;;;1.80;0.73;;;;;;;38.07;12.37;100177.13;7619636;32;38646;-77
2022/08/10 14:13:43;;;;;;;;;;;;;;;37.84;11.22;100163.19;7620503;32;37910;-78
2022/08/10 14:18:00;;;;;;;2.53;1.08;;;;;;;38.58;11.37;100170.72;7632931;32;39697;-77
2022/08/10 14:22:18;;;;;;;1.50;1.00;;;;;;;37.90;10.88;100173.56;7632428;32;39612;-78
2022/08/10 14:26:55;;;;;;;2.40;0.85;;;;;;;37.64;11.72;100158.44;7632784;32;38862;-78
2022/08/10 14:31:14;;;;;;;6.03;0.80;;;;;;;37.58;12.33;100157.38;7632046;32;37059;-77
2022/08/10 14:35:40;;;;;;;1.80;1.05;;;;;;;37.98;12.29;100159.13;7621969;32;40499;-77
2022/08/10 14:40:19;;;;;;;3.10;1.10;;;;;;;37.87;12.42;100156.59;7604678;32;41089;-77
2022/08/10 14:44:54;;;;;;;1.30;0.93;;;;;;;38.23;11.30;100158.41;7619076;32;38744;-81
2022/08/10 14:49:12;;;;;;;1.48;1.00;;;;;;;38.14;11.31;100137.09;7592455;32;37835;-78
2022/08/10 14:53:42;;;;;;;2.33;1.08;;;;;;;37.89;11.81;100154.09;7606630;32;40115;-77
2022/08/10 14:58:02;;;;;;;2.40;0.95;;;;;;;37.17;11.90;100153.19;7593387;32;40116;-77
2022/08/10 15:02:47;;;;;;;0.95;0.65;;;;;;;37.34;11.90;100154.00;7594956;32;37835;-77
2022/08/10 15:07:22;;;;;;;2.70;0.70;;;;;;;37.17;11.47;100139.00;7592640;32;37027;-77
2022/08/10 15:11:39;;;;;;;2.42;0.90;;;;;;;36.68;12.89;100153.22;7587792;32;40224;-76
2022/08/10 15:16:16;;;;;;;4.85;1.30;;;;;;;36.54;12.62;100149.47;7606312;32;40210;-77
2022/08/10 15:20:36;;;;;;;1.40;0.98;;;;;;;36.62;12.03;100141.59;7604515;32;38657;-77
2022/08/10 15:25:05;;;;;;;1.67;1.05;;;;;;;36.34;13.35;100143.88;7606017;32;38088;-78
2022/08/10 15:29:40;;;;;;;1.62;0.85;;;;;;;36.83;13.62;100137.44;7606021;32;39546;-77
2022/08/10 15:38:48;;;;;;;1.27;1.10;;;;;;;36.19;13.82;100146.19;7594415;32;37920;-78
2022/08/10 15:43:20;;;;;;;1.67;1.17;;;;;;;36.45;12.55;100135.09;7606042;32;37051;-77
2022/08/10 15:47:48;;;;;;;1.70;1.08;;;;;;;36.58;12.89;100136.00;7623979;32;40189;-77
2022/08/10 15:52:34;;;;;;;2.50;0.75;;;;;;;36.62;12.22;100131.03;7613866;32;40658;-77
2022/08/10 15:57:18;;;;;;;3.58;1.08;;;;;;;35.88;12.64;100149.31;7605050;32;37823;-79
2022/08/10 16:01:50;;;;;;;1.12;0.80;;;;;;;35.31;13.36;100134.22;7604267;32;37026;-80
2022/08/10 16:07:00;;;;;;;1.50;0.95;;;;;;;35.23;13.15;100137.62;7601287;32;39695;-80
2022/08/10 16:11:25;;;;;;;1.00;0.88;;;;;;;35.40;13.56;100136.47;7597101;32;40616;-81
2022/08/10 16:16:04;;;;;;;2.20;1.10;;;;;;;35.41;13.22;100143.75;7629924;32;37990;-81
2022/08/10 16:20:31;;;;;;;2.25;1.15;;;;;;;35.56;13.81;100140.62;7629323;32;36809;-81
2022/08/10 16:24:48;;;;;;;2.42;1.25;;;;;;;35.20;13.59;100142.06;7630518;32;40197;-80
2022/08/10 16:29:14;;;;;;;2.65;1.05;;;;;;;34.61;14.52;100154.78;7617166;32;39956;-80
2022/08/10 16:33:33;;;;;;;1.40;1.12;;;;;;;34.69;13.83;100144.16;7617108;32;37724;-80
2022/08/10 16:38:10;;;;;;;1.35;0.90;;;;;;;34.34;14.61;100147.09;7619454;32;36996;-79
2022/08/10 16:42:30;;;;;;;3.30;1.30;;;;;;;34.16;14.80;100146.53;7615540;32;39151;-81
2022/08/10 16:46:46;;;;;;;3.55;1.05;;;;;;;34.40;14.84;100141.75;7616884;32;38709;-79
2022/08/10 16:51:03;;;;;;;1.92;0.90;;;;;;;34.13;15.43;100142.50;7629676;32;37792;-80
2022/08/10 16:55:22;;;;;;;3.50;0.93;;;;;;;34.11;14.78;100149.81;7630342;32;37222;-81
2022/08/10 16:59:59;;;;;;;5.62;1.20;;;;;;;33.88;14.95;100154.16;7629405;32;40461;-80
2022/08/10 17:04:16;;;;;;;2.55;1.15;;;;;;;33.56;14.83;100149.66;7616285;32;40774;-81
2022/08/10 17:08:38;;;;;;;1.37;0.90;;;;;;;33.61;15.04;100143.53;7622298;32;38563;-80
2022/08/10 17:13:05;;;;;;;2.45;1.17;;;;;;;33.42;15.33;100152.63;7618065;32;36822;-80
2022/08/10 17:17:28;;;;;;;2.75;1.08;;;;;;;33.93;14.80;100152.91;7629984;32;40062;-80
2022/08/10 17:21:55;;;;;;;1.20;0.90;;;;;;;33.54;15.16;100157.75;7616857;32;39964;-79
2022/08/10 17:26:16;;;;;;;3.17;1.27;;;;;;;32.71;15.79;100163.31;7616761;32;37887;-78
2022/08/10 17:30:47;;;;;;;3.50;1.00;;;;;;;32.24;16.48;100174.88;7617324;32;37021;-79
2022/08/10 17:35:17;;;;;;;2.28;1.15;;;;;;;31.65;17.01;100178.31;7616290;32;39154;-80
2022/08/10 17:39:42;;;;;;;3.90;1.02;;;;;;;31.43;17.53;100178.31;7630010;32;40003;-79
2022/08/10 17:44:02;;;;;;;1.90;1.02;;;;;;;31.06;17.77;100178.75;7616111;32;37700;-79
2022/08/10 17:48:29;;;;;;;1.67;1.02;;;;;;;30.82;18.32;100183.16;7601473;32;36949;-75
2022/08/10 17:52:46;;;;;;;1.10;0.98;;;;;;;30.64;19.00;100183.94;7617329;32;39965;-78
2022/08/10 17:57:17;;;;;;;1.85;1.20;;;;;;;30.31;19.68;100183.03;7632752;32;39598;-80
2022/08/10 18:01:34;;;;;;;1.45;0.90;;;;;;;30.12;20.03;100183.37;7631883;32;38680;-80
2022/08/10 18:06:14;;;;;;;1.37;1.10;;;;;;;29.75;19.81;100181.56;7619883;32;37459;-78
2022/08/10 18:10:31;;;;;;;2.12;1.10;;;;;;;29.69;19.87;100185.94;7615484;32;39094;-79
2022/08/10 18:14:50;;;;;;;1.15;1.00;;;;;;;29.42;19.73;100194.59;7618772;32;39994;-80
2022/08/10 18:19:10;;;;;;;4.25;1.25;;;;;;;29.26;20.49;100191.28;7609993;32;266634;-80
2022/08/10 18:23:26;;;;;;;7.50;1.27;;;;;;;29.18;20.14;100184.81;7618547;32;38118;-80
2022/08/10 18:27:43;;;;;;;3.87;1.30;;;;;;;28.98;20.84;100195.44;7619228;32;40005;-80
2022/08/10 18:32:23;;;;;;;2.12;1.12;;;;;;;28.82;20.72;100190.91;7619965;32;39930;-79
2022/08/10 18:36:41;;;;;;;2.87;1.00;;;;;;;28.71;20.97;100201.19;7621002;32;38816;-79
2022/08/10 18:41:01;;;;;;;4.35;1.20;;;;;;;28.62;20.77;100204.31;7606884;32;36855;-77
2022/08/10 18:45:19;;;;;;;4.47;1.40;;;;;;;28.55;21.23;100211.88;7619130;32;39753;-78
2022/08/10 18:49:36;;;;;;;2.05;1.27;;;;;;;28.37;21.17;100226.47;7632658;32;40917;-80
2022/08/10 18:54:05;;;;;;;1.58;0.98;;;;;;;28.31;21.51;100219.56;7632600;32;38053;-80
2022/08/10 18:58:53;;;;;;;1.77;1.17;;;;;;;28.26;21.14;100231.13;7621486;32;38366;-79
2022/08/10 19:03:39;;;;;;;1.87;1.17;;;;;;;28.22;21.42;100228.28;7631196;32;39473;-79
2022/08/10 19:08:37;;;;;;;3.28;1.10;;;;;;;28.13;21.58;100240.97;7630356;32;39883;-80
2022/08/10 19:13:29;;;;;;;1.65;1.30;;;;;;;27.95;21.61;100241.53;7626123;32;37667;-80
2022/08/10 19:18:11;;;;;;;2.05;1.30;;;;;;;27.93;21.74;100248.72;7631459;32;37167;-81
2022/08/10 19:22:33;;;;;;;4.65;1.37;;;;;;;27.71;22.40;100243.56;7614141;32;40117;-79
2022/08/10 19:27:28;;;;;;;3.47;1.43;;;;;;;27.75;22.17;100242.81;7618770;32;40175;-79
2022/08/10 19:32:25;;;;;;;2.47;1.30;;;;;;;27.61;23.48;100258.19;7628974;32;37721;-78
2022/08/10 19:36:53;;;;;;;1.85;1.30;;;;;;;27.56;23.02;100254.91;7619377;32;36647;-79
2022/08/10 19:41:41;;;;;;;6.78;1.48;;;;;;;27.53;23.26;100251.69;7618547;32;39518;-79
2022/08/10 19:46:17;;;;;;;1.35;1.20;;;;;;;27.54;23.52;100250.53;7630054;32;40861;-79
2022/08/10 19:50:40;;;;;;;3.78;1.20;;;;;;;27.37;23.50;100258.63;7631522;32;38735;-78
2022/08/10 19:55:21;;;;;;;3.53;1.30;;;;;;;27.22;23.12;100263.97;7630984;32;36955;-79
2022/08/10 20:00:01;;;;;;;2.30;1.30;;;;;;;27.14;23.33;100259.41;7631629;32;40414;-79
2022/08/10 20:04:42;;;;;;;1.65;1.00;;;;;;;27.04;24.48;100274.03;7630615;32;40098;-78
2022/08/10 20:09:22;;;;;;;1.95;1.27;;;;;;;26.96;24.54;100276.69;7618232;32;38034;-79
2022/08/10 20:13:49;;;;;;;4.32;1.40;;;;;;;26.93;23.66;100274.63;7630775;32;37651;-79
2022/08/10 20:18:22;;;;;;;1.55;1.40;;;;;;;26.82;24.12;100276.44;7617124;32;39437;-79
2022/08/10 20:22:50;;;;;;;1.33;1.20;;;;;;;26.66;24.21;100275.72;7617902;32;40050;-79
2022/08/10 20:27:38;;;;;;;1.77;1.37;;;;;;;26.71;24.30;100283.81;7617934;32;37712;-79
2022/08/10 20:32:27;;;;;;;2.20;1.30;;;;;;;26.43;24.31;100290.41;7621562;32;37870;-78
2022/08/10 20:37:15;;;;;;;2.62;1.55;;;;;;;26.43;24.45;100296.00;7617543;32;39395;-79
2022/08/10 20:42:03;;;;;;;3.55;1.33;;;;;;;26.26;24.68;100299.22;7621601;32;40204;-77
2022/08/10 20:46:25;;;;;;;2.42;1.20;;;;;;;26.09;24.96;100309.62;7616875;32;37906;-77
2022/08/10 20:50:48;;;;;;;4.93;1.58;;;;;;;25.81;25.64;100309.75;7617484;32;36780;-78
2022/08/10 20:55:10;;;;;;;2.30;1.50;;;;;;;25.69;25.58;100305.09;7616562;32;39039;-80
2022/08/10 20:59:44;;;;;;;3.03;1.17;;;;;;;25.78;25.73;100314.06;7617013;32;38980;-80